createdAt,value
2023-03-30T00:01:22.476Z,28.30
2023-03-30T00:03:59.428Z,29.90
2023-03-30T00:06:37.165Z,32.10
2023-03-30T00:09:17.013Z,33.70
2023-03-30T00:11:52.844Z,34.30
2023-03-30T00:14:30.425Z,33.60
2023-03-30T00:17:07.310Z,38.30
2023-03-30T00:19:41.955Z,38.00
2023-03-30T00:22:26.347Z,41.10
2023-03-30T00:25:12.044Z,42.90
2023-03-30T00:27:47.227Z,43.70
2023-03-30T00:30:24.554Z,43.60
2023-03-30T00:33:01.805Z,47.70
2023-03-30T00:35:40.104Z,44.70
2023-03-30T00:38:21.591Z,47.10
2023-03-30T00:41:00.814Z,47.50
2023-03-30T00:43:36.957Z,51.30
2023-03-30T00:46:12.075Z,52.90
2023-03-30T00:48:50.070Z,51.80
2023-03-30T00:51:27.633Z,57.90
2023-03-30T00:54:06.088Z,59.70
2023-03-30T00:56:43.544Z,59.90
2023-03-30T00:59:19.738Z,60.20
2023-03-30T01:01:55.603Z,62.10
2023-03-30T01:04:32.699Z,63.10
2023-03-30T01:07:13.548Z,62.40
2023-03-30T01:09:49.426Z,63.30
2023-03-30T01:12:30.217Z,60.80
2023-03-30T01:15:05.799Z,65.30
2023-03-30T01:17:47.363Z,65.80
2023-03-30T01:20:43.824Z,69.30
2023-03-30T01:23:43.754Z,67.70
2023-03-30T01:26:49.472Z,76.30
2023-03-30T01:29:47.327Z,75.60
2023-03-30T01:32:55.912Z,79.20
2023-03-30T01:35:41.227Z,83.60
2023-03-30T01:38:25.217Z,83.00
2023-03-30T01:41:10.182Z,81.90
2023-03-30T01:43:49.896Z,82.20
2023-03-30T01:46:26.938Z,87.70
2023-03-30T01:49:05.846Z,80.70
2023-03-30T01:51:43.552Z,85.50
2023-03-30T01:54:24.113Z,84.80
2023-03-30T01:57:03.394Z,86.80
2023-03-30T01:59:40.445Z,90.50
2023-03-30T02:02:16.028Z,89.50
2023-03-30T02:04:54.021Z,91.20
2023-03-30T02:07:30.325Z,90.70
2023-03-30T02:10:06.447Z,91.50
2023-03-30T02:12:44.936Z,91.20
2023-03-30T02:15:22.196Z,91.30
2023-03-30T02:17:59.621Z,90.20
2023-03-30T02:20:35.274Z,90.30
2023-03-30T02:23:11.954Z,90.60
2023-03-30T02:25:48.207Z,90.00
2023-03-30T02:28:29.722Z,90.80
2023-03-30T02:31:06.552Z,91.00
2023-03-30T02:33:45.596Z,90.40
2023-03-30T02:36:28.422Z,90.10
2023-03-30T02:39:09.128Z,91.00
2023-03-30T02:41:56.444Z,87.60
2023-03-30T02:44:38.142Z,89.10
2023-03-30T02:47:15.087Z,88.90
2023-03-30T02:49:57.841Z,90.20
2023-03-30T02:52:45.571Z,89.60
2023-03-30T02:55:25.972Z,90.40
2023-03-30T02:58:17.315Z,91.10
2023-03-30T03:01:20.315Z,91.20
2023-03-30T03:04:03.663Z,91.90
2023-03-30T03:06:47.988Z,91.90
2023-03-30T03:09:25.411Z,91.80
2023-03-30T03:12:02.194Z,92.10
2023-03-30T03:14:45.734Z,91.70
2023-03-30T03:17:25.068Z,92.10
2023-03-30T03:20:03.953Z,92.40
2023-03-30T03:22:42.044Z,92.50
2023-03-30T03:25:18.152Z,91.40
2023-03-30T03:28:05.345Z,92.70
2023-03-30T03:30:49.460Z,93.80
2023-03-30T03:33:32.163Z,94.40
2023-03-30T03:36:17.129Z,94.90
2023-03-30T03:38:57.015Z,94.80
2023-03-30T03:41:37.566Z,94.10
2023-03-30T03:44:13.447Z,94.50
2023-03-30T03:46:49.257Z,95.80
2023-03-30T03:49:29.831Z,95.30
2023-03-30T03:52:07.542Z,95.40
2023-03-30T03:54:44.964Z,96.50
2023-03-30T03:57:24.446Z,97.70
2023-03-30T04:00:00.537Z,99.30
2023-03-30T04:02:35.832Z,99.70
2023-03-30T04:05:16.546Z,99.90
2023-03-30T04:07:54.386Z,99.90
2023-03-30T04:10:32.902Z,99.90
2023-03-30T04:13:35.943Z,99.90
2023-03-30T04:16:12.930Z,99.90
2023-03-30T04:18:54.195Z,99.90
2023-03-30T04:21:47.492Z,99.90
2023-03-30T04:24:36.522Z,99.90
2023-03-30T04:27:50.715Z,99.90
2023-03-30T04:30:51.409Z,99.90
2023-03-30T04:33:53.575Z,99.90
2023-03-30T04:37:04.538Z,99.90
2023-03-30T04:39:44.959Z,99.90
2023-03-30T04:42:54.972Z,99.90
2023-03-30T04:46:02.308Z,99.90
2023-03-30T04:48:49.930Z,99.90
2023-03-30T04:51:25.917Z,99.90
2023-03-30T04:54:02.712Z,99.90
2023-03-30T04:56:51.109Z,99.90
2023-03-30T04:59:50.088Z,99.90
2023-03-30T05:02:53.033Z,99.90
2023-03-30T05:05:41.574Z,99.90
2023-03-30T05:08:46.874Z,99.90
2023-03-30T05:11:44.311Z,99.90
2023-03-30T05:14:52.585Z,99.90
2023-03-30T05:17:28.651Z,99.90
2023-03-30T05:20:23.215Z,99.90
2023-03-30T05:23:24.999Z,99.90
2023-03-30T05:26:00.129Z,99.90
2023-03-30T05:28:48.111Z,99.90
2023-03-30T05:31:35.766Z,99.90
2023-03-30T05:34:32.816Z,99.90
2023-03-30T05:37:19.090Z,99.90
2023-03-30T05:40:24.630Z,99.90
2023-03-30T05:43:18.202Z,99.90
2023-03-30T05:46:23.478Z,99.90
2023-03-30T05:49:29.476Z,99.90
2023-03-30T05:52:17.386Z,99.90
2023-03-30T05:55:21.364Z,99.90
2023-03-30T05:58:18.384Z,99.90
2023-03-30T06:01:15.870Z,99.90
2023-03-30T06:03:55.632Z,99.90
2023-03-30T06:06:34.759Z,99.90
2023-03-30T06:09:10.964Z,99.90
2023-03-30T06:11:47.676Z,99.90
2023-03-30T06:14:30.245Z,99.90
2023-03-30T06:17:26.367Z,99.90
2023-03-30T06:20:08.773Z,99.90
2023-03-30T06:22:48.325Z,99.90
2023-03-30T06:25:27.927Z,99.90
2023-03-30T06:28:04.751Z,99.90
2023-03-30T06:30:40.686Z,99.90
2023-03-30T06:33:20.120Z,99.90
2023-03-30T06:36:03.539Z,99.90
2023-03-30T06:38:43.915Z,99.90
2023-03-30T06:41:19.736Z,99.90
2023-03-30T06:43:57.044Z,99.90
2023-03-30T06:46:40.203Z,99.90
2023-03-30T06:49:18.968Z,99.90
2023-03-30T06:52:15.360Z,99.90
2023-03-30T06:54:54.962Z,99.90
2023-03-30T06:57:31.138Z,99.90
2023-03-30T07:00:13.920Z,99.90
2023-03-30T07:02:49.653Z,99.90
2023-03-30T07:05:35.001Z,99.90
2023-03-30T07:08:23.837Z,98.90
2023-03-30T07:11:05.914Z,99.90
2023-03-30T07:13:44.102Z,97.10
2023-03-30T07:16:19.693Z,99.90
2023-03-30T07:18:57.691Z,99.90
2023-03-30T07:21:33.231Z,99.90
2023-03-30T07:24:09.444Z,99.90
2023-03-30T07:26:49.367Z,99.90
2023-03-30T07:29:27.504Z,99.90
2023-03-30T07:32:04.587Z,99.90
2023-03-30T07:34:40.877Z,99.90
2023-03-30T07:37:20.567Z,99.90
2023-03-30T07:39:57.760Z,99.90
2023-03-30T07:42:35.965Z,99.90
2023-03-30T07:45:16.498Z,99.90
2023-03-30T07:47:55.044Z,99.90
2023-03-30T07:50:31.488Z,99.90
2023-03-30T07:53:13.808Z,99.90
2023-03-30T07:55:53.473Z,99.90
2023-03-30T07:58:42.000Z,99.90
2023-03-30T08:01:18.756Z,99.90
2023-03-30T08:04:14.866Z,99.90
2023-03-30T08:06:50.507Z,99.90
2023-03-30T08:09:26.727Z,99.90
2023-03-30T08:12:02.145Z,99.90
2023-03-30T08:14:40.338Z,99.90
2023-03-30T08:17:16.797Z,99.90
2023-03-30T08:19:55.406Z,99.90
2023-03-30T08:22:30.911Z,99.90
2023-03-30T08:25:06.050Z,99.90
2023-03-30T08:27:41.728Z,99.90
2023-03-30T08:30:20.925Z,99.90
2023-03-30T08:32:58.746Z,99.90
2023-03-30T08:35:34.091Z,99.90
2023-03-30T08:38:10.565Z,99.90
2023-03-30T08:40:46.744Z,99.90
2023-03-30T08:43:37.193Z,99.90
2023-03-30T08:46:31.298Z,99.90
2023-03-30T08:49:06.779Z,99.90
2023-03-30T08:51:42.875Z,99.90
2023-03-30T08:54:19.978Z,99.90
2023-03-30T08:57:01.211Z,99.90
2023-03-30T08:59:40.050Z,99.90
2023-03-30T09:02:25.497Z,99.90
2023-03-30T09:05:02.317Z,99.90
2023-03-30T09:07:40.791Z,99.90
2023-03-30T09:10:20.180Z,99.90
2023-03-30T09:12:55.380Z,99.90
2023-03-30T09:15:32.501Z,99.90
2023-03-30T09:18:14.725Z,99.90
2023-03-30T09:20:51.433Z,99.90
2023-03-30T09:23:27.097Z,99.90
2023-03-30T09:26:06.892Z,99.90
2023-03-30T09:28:49.652Z,99.90
2023-03-30T09:31:28.973Z,99.90
2023-03-30T09:34:11.195Z,99.90
2023-03-30T09:36:46.721Z,99.90
2023-03-30T09:39:22.444Z,99.90
2023-03-30T09:42:08.055Z,99.90
2023-03-30T09:44:47.388Z,99.90
2023-03-30T09:47:27.763Z,99.90
2023-03-30T09:50:06.507Z,99.90
2023-03-30T09:52:42.964Z,99.90
2023-03-30T09:55:28.706Z,99.90
2023-03-30T09:58:21.610Z,99.90
2023-03-30T10:00:55.563Z,99.90
2023-03-30T10:03:33.279Z,99.90
2023-03-30T10:06:13.476Z,99.90
2023-03-30T10:08:55.404Z,99.90
2023-03-30T10:11:37.510Z,99.90
2023-03-30T10:14:27.622Z,99.90
2023-03-30T10:17:09.625Z,99.90
2023-03-30T10:19:49.455Z,99.90
2023-03-30T10:22:31.750Z,99.90
2023-03-30T10:25:12.088Z,99.90
2023-03-30T10:27:53.812Z,99.90
2023-03-30T10:30:29.796Z,99.90
2023-03-30T10:33:08.779Z,99.90
2023-03-30T10:35:44.465Z,99.90
2023-03-30T10:38:22.661Z,99.90
2023-03-30T10:41:03.021Z,99.90
2023-03-30T10:43:39.458Z,99.90
2023-03-30T10:46:19.367Z,99.90
2023-03-30T10:49:04.807Z,99.90
2023-03-30T10:51:44.488Z,99.90
2023-03-30T10:54:26.562Z,99.90
2023-03-30T10:57:05.056Z,99.90
2023-03-30T11:00:04.391Z,99.90
2023-03-30T11:02:47.879Z,99.90
2023-03-30T11:05:24.250Z,99.90
2023-03-30T11:08:00.755Z,99.90
2023-03-30T11:10:43.598Z,99.90
2023-03-30T11:13:21.929Z,99.90
2023-03-30T11:15:59.049Z,99.90
2023-03-30T11:18:37.786Z,99.90
2023-03-30T11:21:15.159Z,99.90
2023-03-30T11:23:56.622Z,99.90
2023-03-30T11:26:39.262Z,99.90
2023-03-30T11:29:24.753Z,99.90
2023-03-30T11:32:15.026Z,99.90
2023-03-30T11:35:05.119Z,99.90
2023-03-30T11:37:43.040Z,99.90
2023-03-30T11:40:23.640Z,99.90
2023-03-30T11:43:03.774Z,99.90
2023-03-30T11:45:47.254Z,99.90
2023-03-30T11:48:44.091Z,99.90
2023-03-30T11:51:21.581Z,99.90
2023-03-30T11:53:58.884Z,99.90
2023-03-30T11:56:38.491Z,99.90
2023-03-30T11:59:19.112Z,99.90
2023-03-30T12:02:04.944Z,99.90
2023-03-30T12:04:44.146Z,99.90
2023-03-30T12:07:24.854Z,99.90
2023-03-30T12:10:04.747Z,99.90
2023-03-30T12:12:47.624Z,99.90
2023-03-30T12:15:36.537Z,99.90
2023-03-30T12:18:19.611Z,99.90
2023-03-30T12:20:51.547Z,99.90
2023-03-30T12:23:33.306Z,99.90
2023-03-30T12:26:13.641Z,99.90
2023-03-30T12:29:20.803Z,99.90
2023-03-30T12:32:10.989Z,99.90
2023-03-30T12:34:46.178Z,99.90
2023-03-30T12:37:22.856Z,99.90
2023-03-30T12:39:59.424Z,99.90
2023-03-30T12:42:46.714Z,99.90
2023-03-30T12:45:36.734Z,99.90
2023-03-30T12:48:32.857Z,99.90
2023-03-30T12:51:15.741Z,99.90
2023-03-30T12:54:19.542Z,99.90
2023-03-30T12:56:58.805Z,99.90
2023-03-30T12:59:48.156Z,99.90
2023-03-30T13:02:22.639Z,99.90
2023-03-30T13:05:03.612Z,99.90
2023-03-30T13:07:47.352Z,99.90
2023-03-30T13:10:39.284Z,99.90
2023-03-30T13:13:26.627Z,99.90
2023-03-30T13:16:03.419Z,99.90
2023-03-30T13:18:43.877Z,99.90
2023-03-30T13:21:39.924Z,99.90
2023-03-30T13:24:14.344Z,99.90
2023-03-30T13:26:51.592Z,99.90
2023-03-30T13:29:26.717Z,99.90
2023-03-30T13:32:21.943Z,99.90
2023-03-30T13:35:08.418Z,99.90
2023-03-30T13:37:54.380Z,99.90
2023-03-30T13:40:43.898Z,99.90
2023-03-30T13:43:27.194Z,99.90
2023-03-30T13:46:15.561Z,99.90
2023-03-30T13:48:59.998Z,99.90
2023-03-30T13:51:36.246Z,99.90
2023-03-30T13:54:18.796Z,99.90
2023-03-30T13:56:56.048Z,99.90
2023-03-30T13:59:32.914Z,99.90
2023-03-30T14:02:08.134Z,99.90
2023-03-30T14:04:45.411Z,99.90
2023-03-30T14:07:21.751Z,99.90
2023-03-30T14:10:17.179Z,99.90
2023-03-30T14:12:53.044Z,99.90
2023-03-30T14:15:28.282Z,99.90
2023-03-30T14:18:05.163Z,99.90
2023-03-30T14:20:48.750Z,99.90
2023-03-30T14:23:27.106Z,99.90
2023-03-30T14:26:08.006Z,99.90
2023-03-30T14:28:44.799Z,99.90
2023-03-30T14:31:21.486Z,99.90
2023-03-30T14:33:56.414Z,99.90
2023-03-30T14:36:31.923Z,99.90
2023-03-30T14:39:08.289Z,99.90
2023-03-30T14:41:47.107Z,99.90
2023-03-30T14:44:23.386Z,99.90
2023-03-30T14:46:59.487Z,99.90
2023-03-30T14:49:37.431Z,99.90
2023-03-30T14:52:12.630Z,99.90
2023-03-30T14:55:04.823Z,99.90
2023-03-30T14:57:45.463Z,99.90
2023-03-30T15:00:25.214Z,99.90
2023-03-30T15:03:01.076Z,99.90
2023-03-30T15:05:36.239Z,99.90
2023-03-30T15:08:16.497Z,99.90
2023-03-30T15:10:55.193Z,99.90
2023-03-30T15:13:35.953Z,99.90
2023-03-30T15:16:13.788Z,99.90
2023-03-30T15:18:51.296Z,99.90
2023-03-30T15:21:31.880Z,99.90
2023-03-30T15:24:09.836Z,99.90
2023-03-30T15:26:49.717Z,99.90
2023-03-30T15:29:28.681Z,99.90
2023-03-30T15:32:11.709Z,99.90
2023-03-30T15:35:05.985Z,99.90
2023-03-30T15:37:42.251Z,99.90
2023-03-30T15:40:38.274Z,99.90
2023-03-30T15:43:20.722Z,99.90
2023-03-30T15:45:59.737Z,99.90
2023-03-30T15:48:42.171Z,99.90
2023-03-30T15:51:22.872Z,99.90
2023-03-30T15:54:02.182Z,99.90
2023-03-30T15:56:38.393Z,99.90
2023-03-30T15:59:16.359Z,99.90
2023-03-30T16:01:58.243Z,99.90
2023-03-30T16:04:31.286Z,99.90
2023-03-30T16:07:08.816Z,99.90
2023-03-30T16:09:44.572Z,99.90
2023-03-30T16:12:22.770Z,99.90
2023-03-30T16:14:58.749Z,99.90
2023-03-30T16:17:37.840Z,99.90
2023-03-30T16:20:19.499Z,99.90
2023-03-30T16:22:57.017Z,99.90
2023-03-30T16:25:44.160Z,99.90
2023-03-30T16:28:22.871Z,99.90
2023-03-30T16:30:58.977Z,99.90
2023-03-30T16:33:39.388Z,99.90
2023-03-30T16:36:16.063Z,99.90
2023-03-30T16:38:52.227Z,99.90
2023-03-30T16:41:28.272Z,99.90
2023-03-30T16:44:04.547Z,99.90
2023-03-30T16:46:42.041Z,99.90
2023-03-30T16:49:24.969Z,99.90
2023-03-30T16:52:01.881Z,99.90
2023-03-30T16:54:40.483Z,99.90
2023-03-30T16:57:21.138Z,99.90
2023-03-30T16:59:57.422Z,99.90
2023-03-30T17:02:32.878Z,99.90
2023-03-30T17:05:12.414Z,99.90
2023-03-30T17:07:49.705Z,99.90
2023-03-30T17:10:28.462Z,99.90
2023-03-30T17:13:04.697Z,99.90
2023-03-30T17:15:41.097Z,99.90
2023-03-30T17:18:17.422Z,99.90
2023-03-30T17:20:57.927Z,99.90
2023-03-30T17:23:34.423Z,99.90
2023-03-30T17:26:13.788Z,99.90
2023-03-30T17:28:50.712Z,99.90
2023-03-30T17:31:26.139Z,99.90
2023-03-30T17:34:01.962Z,99.90
2023-03-30T17:36:39.742Z,99.90
2023-03-30T17:39:16.757Z,61.50
2023-03-30T17:41:52.053Z,52.40
2023-03-30T17:44:28.127Z,48.10
2023-03-30T17:47:03.347Z,48.00
2023-03-30T17:49:38.470Z,49.40
2023-03-30T17:52:16.016Z,49.90
2023-03-30T17:54:54.307Z,51.70
2023-03-30T17:57:31.683Z,51.70
2023-03-30T18:00:11.348Z,51.80
2023-03-30T18:02:47.553Z,50.80
2023-03-30T18:05:23.909Z,50.80
2023-03-30T18:08:03.114Z,52.40
2023-03-30T18:10:40.143Z,55.40
2023-03-30T18:13:17.683Z,57.10
2023-03-30T18:15:55.185Z,59.40
2023-03-30T18:18:31.361Z,62.00
2023-03-30T18:21:07.073Z,64.00
2023-03-30T18:23:48.763Z,65.90
2023-03-30T18:26:25.642Z,68.00
2023-03-30T18:29:01.611Z,69.00
2023-03-30T18:31:37.017Z,72.00
2023-03-30T18:34:12.697Z,72.20
2023-03-30T18:36:49.012Z,75.00
2023-03-30T18:39:28.360Z,74.90
2023-03-30T18:42:03.020Z,76.00
2023-03-30T18:44:39.453Z,76.50
2023-03-30T18:47:15.667Z,79.10
2023-03-30T18:49:54.044Z,81.10
2023-03-30T18:52:34.095Z,80.50
2023-03-30T18:55:07.911Z,83.30
2023-03-30T18:57:47.459Z,82.40
2023-03-30T19:00:25.151Z,81.40
2023-03-30T19:03:03.004Z,79.40
2023-03-30T19:05:40.547Z,80.30
2023-03-30T19:08:18.657Z,79.90
2023-03-30T19:10:55.258Z,78.50
2023-03-30T19:13:36.962Z,79.80
2023-03-30T19:16:14.743Z,81.50
2023-03-30T19:18:51.638Z,81.40
2023-03-30T19:21:27.673Z,84.90
2023-03-30T19:24:03.429Z,87.70
2023-03-30T19:26:40.097Z,90.10
2023-03-30T19:29:23.098Z,91.90
2023-03-30T19:31:59.177Z,94.10
2023-03-30T19:34:34.375Z,95.50
2023-03-30T19:37:10.076Z,96.90
2023-03-30T19:39:44.932Z,99.00
2023-03-30T19:42:21.218Z,99.90
2023-03-30T19:45:03.656Z,99.90
2023-03-30T19:47:42.410Z,99.90
2023-03-30T19:50:16.890Z,99.90
2023-03-30T19:52:54.729Z,99.90
2023-03-30T19:55:31.562Z,99.90
2023-03-30T19:58:06.491Z,99.90
2023-03-30T20:00:49.866Z,99.90
2023-03-30T20:03:27.215Z,99.90
2023-03-30T20:06:02.659Z,99.90
2023-03-30T20:08:41.224Z,99.90
2023-03-30T20:11:16.443Z,99.90
2023-03-30T20:13:54.586Z,99.90
2023-03-30T20:16:35.602Z,99.90
2023-03-30T20:19:28.605Z,99.90
2023-03-30T20:22:04.962Z,99.90
2023-03-30T20:24:42.088Z,99.90
2023-03-30T20:27:20.701Z,99.90
2023-03-30T20:29:57.351Z,99.90
2023-03-30T20:32:37.002Z,99.90
2023-03-30T20:35:13.560Z,99.90
2023-03-30T20:37:50.737Z,99.90
2023-03-30T20:40:27.796Z,99.90
2023-03-30T20:43:04.221Z,99.90
2023-03-30T20:45:46.549Z,99.90
2023-03-30T20:48:34.076Z,99.90
2023-03-30T20:51:09.324Z,99.90
2023-03-30T20:53:45.859Z,99.90
2023-03-30T20:56:22.316Z,99.90
2023-03-30T20:58:57.045Z,99.90
2023-03-30T21:01:32.113Z,99.90
2023-03-30T21:04:12.094Z,99.90
2023-03-30T21:06:50.605Z,99.90
2023-03-30T21:09:27.138Z,99.90
2023-03-30T21:12:03.173Z,99.90
2023-03-30T21:14:38.776Z,99.90
2023-03-30T21:17:13.182Z,99.90
2023-03-30T21:19:53.098Z,99.90
2023-03-30T21:22:30.609Z,99.90
2023-03-30T21:25:06.467Z,99.90
2023-03-30T21:27:42.140Z,99.90
2023-03-30T21:30:19.763Z,99.90
2023-03-30T21:32:57.396Z,99.90
2023-03-30T21:35:36.491Z,99.90
2023-03-30T21:38:13.786Z,99.90
2023-03-30T21:40:59.647Z,99.90
2023-03-30T21:43:39.624Z,99.90
2023-03-30T21:46:17.860Z,99.90
2023-03-30T21:48:55.113Z,99.90
2023-03-30T21:51:36.279Z,99.90
2023-03-30T21:54:12.437Z,99.90
2023-03-30T21:56:49.425Z,99.90
2023-03-30T21:59:25.260Z,99.90
2023-03-30T22:02:02.867Z,99.90
2023-03-30T22:04:40.749Z,99.90
2023-03-30T22:07:19.432Z,99.90
2023-03-30T22:10:00.223Z,99.90
2023-03-30T22:12:37.748Z,99.90
2023-03-30T22:15:15.939Z,99.90
2023-03-30T22:17:52.277Z,99.90
2023-03-30T22:20:29.690Z,99.90
2023-03-30T22:23:08.603Z,99.90
2023-03-30T22:25:45.483Z,99.90
2023-03-30T22:28:20.144Z,99.90
2023-03-30T22:30:58.096Z,99.90
2023-03-30T22:33:35.276Z,99.90
2023-03-30T22:36:19.476Z,99.90
2023-03-30T22:39:00.805Z,99.90
2023-03-30T22:41:41.603Z,99.90
2023-03-30T22:44:18.970Z,99.90
2023-03-30T22:46:54.842Z,99.90
2023-03-30T22:49:34.546Z,99.90
2023-03-30T22:52:09.957Z,99.90
2023-03-30T22:54:49.151Z,99.90
2023-03-30T22:57:25.510Z,99.90
2023-03-30T23:00:01.055Z,99.90
2023-03-30T23:02:39.392Z,99.90
2023-03-30T23:05:15.158Z,99.90
2023-03-30T23:07:51.686Z,99.90
2023-03-30T23:10:34.135Z,99.90
2023-03-30T23:13:09.288Z,99.90
2023-03-30T23:15:49.828Z,99.90
2023-03-30T23:18:25.880Z,99.90
2023-03-30T23:21:08.275Z,99.90
2023-03-30T23:23:44.055Z,99.90
2023-03-30T23:26:23.907Z,99.90
2023-03-30T23:28:59.671Z,99.90
2023-03-30T23:31:35.659Z,99.90
2023-03-30T23:34:22.903Z,99.90
2023-03-30T23:37:00.294Z,99.90
2023-03-30T23:39:36.232Z,99.90
2023-03-30T23:42:15.242Z,99.90
2023-03-30T23:44:52.192Z,99.90
2023-03-30T23:47:27.615Z,99.90
2023-03-30T23:50:05.127Z,99.90
2023-03-30T23:52:42.293Z,99.90
2023-03-30T23:55:19.017Z,99.90
2023-03-30T23:57:57.812Z,99.90
